Time;durP1;ratioP1;P1;durP2;ratioP2;P2;SDS_P1;SDS_P2;PMS_P1;PMS_P2;Temp;Humidity;BMP_temperature;BMP_pressure;BME280_temperature;BME280_humidity;BME280_pressure;Samples;Min_cycle;Max_cycle;Signal;HPM_P1;HPM_P2
2021/12/14 00:01:50;;;;;;;;;14.33;9.00;;;;;8.86;71.29;102471.84;4991641;28;45414;-96
2021/12/14 00:04:20;;;;;;;;;13.67;10.67;;;;;8.92;71.77;102479.25;4919469;28;47443;-96
2021/12/14 00:06:48;;;;;;;;;16.33;13.67;;;;;8.87;70.67;102473.66;4919925;28;45790;-96
2021/12/14 00:09:24;;;;;;;;;14.33;10.33;;;;;8.85;71.16;102462.13;4935159;28;45405;-96
2021/12/14 00:17:13;;;;;;;;;14.67;11.67;;;;;8.74;70.13;102494.38;4918311;28;45618;-96
2021/12/14 00:19:39;;;;;;;;;8.00;7.33;;;;;8.66;71.20;102481.59;4920424;28;45477;-96
2021/12/14 00:22:23;;;;;;;;;10.67;8.00;;;;;8.61;71.53;102477.69;4933716;28;45444;-96
2021/12/14 00:24:49;;;;;;;;;10.67;10.00;;;;;8.60;71.50;102478.50;4937464;28;47281;-96
2021/12/14 00:27:17;;;;;;;;;13.33;9.33;;;;;8.72;71.99;102486.41;4926490;28;46101;-96
2021/12/14 00:29:47;;;;;;;;;10.33;8.00;;;;;8.65;72.11;102448.38;4919790;28;45481;-96
2021/12/14 00:32:19;;;;;;;;;10.00;9.00;;;;;8.76;71.25;102472.78;4919248;28;45524;-96
2021/12/14 00:34:46;;;;;;;;;10.33;8.00;;;;;8.62;71.67;102441.97;4947320;28;47426;-96
2021/12/14 00:37:19;;;;;;;;;9.67;8.67;;;;;8.68;71.27;102463.41;4989576;28;46285;-96
2021/12/14 00:39:46;;;;;;;;;12.33;12.33;;;;;8.66;71.89;102455.41;4987326;28;45471;-96
2021/12/14 00:42:12;;;;;;;;;10.67;9.00;;;;;8.65;71.49;102450.06;4987047;28;45518;-96
2021/12/14 00:44:39;;;;;;;;;10.00;8.00;;;;;8.62;71.28;102452.44;4994439;28;47278;-96
2021/12/14 00:47:05;;;;;;;;;11.67;8.33;;;;;8.74;72.21;102474.34;4995220;28;45550;-96
2021/12/14 00:49:32;;;;;;;;;9.33;8.00;;;;;8.67;72.13;102454.63;4995692;28;45770;-96
2021/12/14 00:51:58;;;;;;;;;11.33;7.67;;;;;8.75;72.19;102465.72;4994830;28;45454;-96
2021/12/14 00:54:25;;;;;;;;;10.33;8.33;;;;;8.60;72.36;102437.53;4993866;28;47113;-96
2021/12/14 00:56:52;;;;;;;;;13.33;9.00;;;;;8.66;72.69;102449.28;4991432;28;45771;-96
2021/12/14 00:59:20;;;;;;;;;12.67;9.67;;;;;8.77;72.24;102460.59;4977772;28;45490;-96
2021/12/14 01:01:53;;;;;;;;;9.33;8.00;;;;;8.80;72.35;102460.84;4990908;28;45418;-96
2021/12/14 01:04:27;;;;;;;;;12.00;7.33;;;;;8.65;72.38;102448.38;5011883;28;47015;-96
2021/12/14 01:06:54;;;;;;;;;12.33;11.00;;;;;8.72;72.10;102460.25;4998920;28;46194;-96
2021/12/14 01:09:24;;;;;;;;;9.00;7.00;;;;;8.75;72.00;102476.19;4991583;28;45471;-96
2021/12/14 01:11:51;;;;;;;;;10.67;8.00;;;;;8.63;71.73;102452.56;5003879;28;45435;-96
2021/12/14 01:14:27;;;;;;;;;8.67;7.33;;;;;8.72;72.12;102473.31;4998618;28;47030;-96
2021/12/14 01:17:14;;;;;;;;;9.00;8.00;;;;;8.60;72.54;102471.56;4999949;28;45674;-96
2021/12/14 01:20:03;;;;;;;;;11.00;7.67;;;;;8.59;72.89;102463.56;4998731;28;45723;-96
2021/12/14 01:22:44;;;;;;;;;13.33;10.33;;;;;8.61;73.15;102467.22;4997670;28;45397;-96
2021/12/14 01:25:31;;;;;;;;;16.33;10.67;;;;;8.74;72.55;102500.53;4996991;28;48456;-96
2021/12/14 01:28:02;;;;;;;;;9.00;9.00;;;;;8.75;72.65;102496.22;4998562;28;45430;-96
2021/12/14 01:31:04;;;;;;;;;13.67;10.00;;;;;8.57;73.04;102470.34;4999830;28;45351;-96
2021/12/14 01:33:32;;;;;;;;;18.00;11.67;;;;;8.63;73.15;102483.06;5016083;28;45395;-96
2021/12/14 01:36:00;;;;;;;;;15.33;13.00;;;;;8.65;73.04;102497.19;5014019;28;47255;-96
2021/12/14 01:40:56;;;;;;;;;13.33;12.33;;;;;8.83;73.12;102530.13;4981135;28;45442;-96
2021/12/14 01:43:39;;;;;;;;;13.33;9.67;;;;;8.85;73.08;102526.69;4997652;28;45719;-96
2021/12/14 01:46:28;;;;;;;;;12.67;7.00;;;;;8.79;72.81;102514.94;5006734;28;47441;-96
2021/12/14 01:48:55;;;;;;;;;13.67;9.00;;;;;8.77;72.74;102521.75;4998465;28;45360;-96
2021/12/14 01:51:22;;;;;;;;;16.33;8.67;;;;;8.81;72.56;102522.94;4991271;28;45428;-96
2021/12/14 01:53:51;;;;;;;;;9.00;9.00;;;;;8.82;72.83;102525.66;4998677;28;45487;-96
2021/12/14 01:56:22;;;;;;;;;7.67;7.00;;;;;8.81;72.81;102539.53;4978827;28;48087;-96
2021/12/14 01:58:51;;;;;;;;;9.33;6.67;;;;;8.71;73.27;102532.63;4978968;28;46316;-96
2021/12/14 02:01:36;;;;;;;;;10.33;9.33;;;;;8.76;72.50;102546.09;4998264;28;45417;-96
2021/12/14 02:04:10;;;;;;;;;9.33;8.67;;;;;8.85;72.67;102566.88;5012097;28;45367;-96
2021/12/14 02:06:36;;;;;;;;;13.67;7.67;;;;;8.77;73.01;102555.78;4992025;28;47162;-96
2021/12/14 02:09:13;;;;;;;;;9.00;9.00;;;;;8.67;71.52;102550.59;5015284;28;45319;-96
2021/12/14 02:11:49;;;;;;;;;9.00;9.00;;;;;8.77;72.87;102567.97;4999705;28;45614;-96
2021/12/14 02:14:15;;;;;;;;;14.33;10.67;;;;;8.80;72.88;102581.31;4998336;28;45613;-96
2021/12/14 02:16:42;;;;;;;;;8.33;8.33;;;;;8.74;72.68;102570.31;5000231;28;47472;-96
2021/12/14 02:19:13;;;;;;;;;12.00;10.67;;;;;8.86;73.08;102586.16;4997785;28;45479;-96
2021/12/14 02:21:40;;;;;;;;;11.33;10.33;;;;;8.69;73.02;102543.75;4994434;28;45257;-96
2021/12/14 02:24:08;;;;;;;;;11.67;10.33;;;;;8.81;73.37;102547.38;5001885;28;45474;-96
2021/12/14 02:26:42;;;;;;;;;13.00;8.33;;;;;8.80;72.66;102536.78;5014532;28;48138;-96
2021/12/14 02:29:19;;;;;;;;;10.67;8.67;;;;;8.87;72.54;102540.81;4997143;28;45458;-96
2021/12/14 02:31:44;;;;;;;;;11.67;11.33;;;;;8.66;73.02;102497.31;4980727;28;45300;-96
2021/12/14 02:34:10;;;;;;;;;10.67;9.67;;;;;8.74;72.76;102512.72;5008714;28;45555;-96
2021/12/14 02:36:43;;;;;;;;;13.67;10.33;;;;;8.70;72.76;102503.72;4990324;28;48371;-96
2021/12/14 02:39:46;;;;;;;;;16.67;13.00;;;;;8.62;72.31;102504.78;4997307;28;45245;-96
2021/12/14 02:42:13;;;;;;;;;16.33;12.67;;;;;8.59;73.06;102503.75;4988447;28;45377;-96
2021/12/14 02:44:39;;;;;;;;;13.00;13.00;;;;;8.74;73.07;102520.56;4997232;28;45271;-96
2021/12/14 02:47:12;;;;;;;;;14.67;13.00;;;;;8.75;73.36;102518.09;4996508;28;47386;-96
2021/12/14 02:49:38;;;;;;;;;11.67;10.67;;;;;8.78;72.77;102522.66;4987047;28;45736;-96
2021/12/14 02:52:08;;;;;;;;;16.33;12.67;;;;;8.77;72.75;102524.38;5013896;28;45357;-96
2021/12/14 02:54:44;;;;;;;;;12.33;12.33;;;;;8.73;72.68;102496.13;4988470;28;45375;-96
2021/12/14 02:57:17;;;;;;;;;11.67;9.67;;;;;8.78;72.76;102505.25;4994887;28;47680;-96
2021/12/14 02:59:46;;;;;;;;;23.00;16.33;;;;;8.85;72.79;102514.53;5000030;28;45577;-96
2021/12/14 03:02:25;;;;;;;;;23.25;21.25;;;;;8.76;73.20;102487.59;4980410;28;45448;-96
2021/12/14 03:04:54;;;;;;;;;18.67;15.33;;;;;8.87;73.26;102496.28;4996660;28;45367;-96
2021/12/14 03:07:24;;;;;;;;;18.67;13.67;;;;;8.87;72.57;102509.38;4997779;28;48613;-96
2021/12/14 03:09:58;;;;;;;;;15.67;12.33;;;;;8.81;72.90;102515.06;5007995;28;45545;-96
2021/12/14 03:12:28;;;;;;;;;18.00;10.00;;;;;8.81;72.31;102513.34;4998504;28;45269;-96
2021/12/14 03:15:13;;;;;;;;;18.00;16.00;;;;;8.68;72.82;102484.34;5024280;28;44811;-96
2021/12/14 03:17:45;;;;;;;;;14.33;14.00;;;;;8.75;73.06;102512.84;5022598;28;47440;-96
2021/12/14 03:20:16;;;;;;;;;11.67;11.67;;;;;8.80;73.48;102511.53;5020200;28;44931;-96
2021/12/14 03:22:48;;;;;;;;;15.00;11.33;;;;;8.84;72.91;102507.44;5003184;28;45276;-96
2021/12/14 03:25:15;;;;;;;;;18.00;15.33;;;;;8.75;72.61;102477.91;4986287;28;45392;-96
2021/12/14 03:27:43;;;;;;;;;12.33;11.00;;;;;8.68;72.90;102485.28;5006309;28;48525;-96
2021/12/14 03:30:32;;;;;;;;;11.67;9.33;;;;;8.81;72.93;102512.44;4994393;28;45317;-96
2021/12/14 03:33:03;;;;;;;;;16.33;14.67;;;;;8.58;72.77;102477.44;4991628;28;45534;-96
2021/12/14 03:35:49;;;;;;;;;14.00;11.00;;;;;8.71;72.83;102490.72;4979795;28;45422;-96
2021/12/14 03:38:23;;;;;;;;;10.67;8.00;;;;;8.66;72.99;102483.31;4995116;28;47207;-96
2021/12/14 03:40:58;;;;;;;;;9.67;9.67;;;;;8.61;72.75;102472.44;5012055;28;45793;-96
2021/12/14 03:43:26;;;;;;;;;7.00;7.00;;;;;8.67;72.48;102499.13;5011696;28;45523;-96
2021/12/14 03:45:52;;;;;;;;;10.33;8.33;;;;;8.59;72.04;102481.88;4995951;28;45523;-96
2021/12/14 03:48:23;;;;;;;;;13.00;9.33;;;;;8.48;72.72;102474.03;5007434;28;47476;-96
2021/12/14 03:50:49;;;;;;;;;13.67;12.33;;;;;8.49;72.37;102473.25;4984617;28;45920;-96
2021/12/14 03:53:18;;;;;;;;;14.33;12.67;;;;;8.49;72.83;102462.78;5011320;28;45339;-96
2021/12/14 03:55:47;;;;;;;;;9.33;8.67;;;;;8.45;72.79;102463.31;4995811;28;45962;-96
2021/12/14 03:58:19;;;;;;;;;14.00;9.67;;;;;8.44;72.39;102447.50;4992919;28;46976;-96
2021/12/14 04:00:54;;;;;;;;;13.67;9.67;;;;;8.43;72.64;102454.41;5004378;28;45348;-96
2021/12/14 04:03:21;;;;;;;;;11.33;9.67;;;;;8.45;72.99;102473.78;5004076;28;45455;-96
2021/12/14 04:05:47;;;;;;;;;11.00;9.00;;;;;8.33;72.77;102454.44;4991531;28;45634;-96
2021/12/14 04:08:14;;;;;;;;;14.00;11.67;;;;;8.42;73.19;102470.94;5009974;28;46993;-96
2021/12/14 04:10:43;;;;;;;;;14.00;10.33;;;;;8.38;72.89;102469.75;4996542;28;45687;-96
2021/12/14 04:13:15;;;;;;;;;11.67;10.33;;;;;8.40;73.50;102482.94;5006225;28;45400;-96
2021/12/14 04:15:41;;;;;;;;;13.33;10.00;;;;;8.44;73.68;102495.53;5004362;28;45690;-96
2021/12/14 04:18:07;;;;;;;;;16.00;10.67;;;;;8.49;72.98;102496.81;5001757;28;47313;-96
2021/12/14 04:20:41;;;;;;;;;14.33;10.00;;;;;8.37;73.14;102483.66;4995411;28;45297;-96
2021/12/14 04:23:17;;;;;;;;;15.67;12.00;;;;;8.34;73.00;102482.47;4994446;28;45571;-96
2021/12/14 04:25:45;;;;;;;;;13.67;11.67;;;;;8.40;73.32;102488.19;4992582;28;45350;-96
2021/12/14 04:28:15;;;;;;;;;10.67;10.33;;;;;8.51;72.94;102507.41;4993960;28;48609;-96
2021/12/14 04:30:41;;;;;;;;;14.67;13.00;;;;;8.43;72.65;102511.06;4999215;28;46763;-96
2021/12/14 04:33:11;;;;;;;;;14.33;12.33;;;;;8.39;73.57;102507.31;4986210;28;45328;-96
2021/12/14 04:35:39;;;;;;;;;13.33;9.33;;;;;8.43;73.35;102504.16;4994005;28;45700;-96
2021/12/14 04:38:16;;;;;;;;;9.33;8.33;;;;;8.47;73.37;102505.31;4975365;28;47338;-96
2021/12/14 04:52:03;;;;;;;;;15.33;12.00;;;;;8.33;72.57;102491.09;5000476;28;45438;-96
2021/12/14 04:54:53;;;;;;;;;9.00;8.00;;;;;8.38;72.69;102503.78;4998800;28;45226;-96
2021/12/14 04:57:34;;;;;;;;;9.00;8.33;;;;;8.25;72.91;102493.97;4997787;28;45581;-96
2021/12/14 05:00:38;;;;;;;;;14.33;9.33;;;;;8.34;72.68;102512.16;4997790;28;48134;-96
2021/12/14 05:03:13;;;;;;;;;8.67;7.67;;;;;8.26;72.91;102495.81;4997552;28;46057;-96
2021/12/14 05:05:56;;;;;;;;;10.00;8.33;;;;;8.22;73.09;102485.00;4999034;28;45268;-96
2021/12/14 05:11:04;;;;;;;;;6.00;6.00;;;;;8.27;72.78;102508.09;4999857;28;45501;-96
2021/12/14 05:13:36;;;;;;;;;8.00;8.00;;;;;8.23;72.74;102505.09;5005073;28;45449;-96
2021/12/14 05:16:03;;;;;;;;;8.33;8.33;;;;;8.26;72.99;102508.00;5009081;28;45479;-96
2021/12/14 05:18:29;;;;;;;;;8.33;8.33;;;;;8.24;72.67;102493.88;4997973;28;45244;-96
2021/12/14 05:20:55;;;;;;;;;8.00;6.00;;;;;8.33;72.53;102514.63;4992727;28;47240;-96
2021/12/14 05:23:27;;;;;;;;;8.00;8.00;;;;;8.20;72.37;102492.69;4978805;28;45366;-96
2021/12/14 05:25:54;;;;;;;;;13.00;9.67;;;;;8.30;72.07;102511.78;4995636;28;45379;-96
2021/12/14 05:28:20;;;;;;;;;12.00;9.67;;;;;8.18;72.35;102496.88;4982803;28;45577;-96
2021/12/14 05:30:50;;;;;;;;;9.00;7.00;;;;;8.27;72.91;102515.06;4983179;28;48125;-96
2021/12/14 05:33:25;;;;;;;;;9.00;9.00;;;;;8.17;73.33;102495.03;4987100;28;46582;-96
2021/12/14 05:35:53;;;;;;;;;14.00;12.33;;;;;8.33;73.17;102519.88;4999916;28;45434;-96
2021/12/14 05:38:26;;;;;;;;;15.67;12.00;;;;;8.20;73.20;102499.63;5014101;28;44930;-96
2021/12/14 05:43:22;;;;;;;;;8.00;7.67;;;;;8.24;72.99;102504.34;4998568;28;46074;-96
2021/12/14 05:45:52;;;;;;;;;9.00;8.00;;;;;8.30;73.00;102512.69;4995354;28;45433;-96
2021/12/14 05:48:23;;;;;;;;;10.00;9.67;;;;;8.33;72.42;102519.88;5014042;28;45414;-96
2021/12/14 05:50:53;;;;;;;;;8.00;8.00;;;;;8.19;72.58;102509.19;5013700;28;47386;-96
2021/12/14 05:53:23;;;;;;;;;16.33;6.67;;;;;8.20;72.83;102511.00;4994375;28;45429;-96
2021/12/14 05:55:49;;;;;;;;;11.33;10.00;;;;;8.10;72.56;102513.63;4997839;28;45529;-96
2021/12/14 05:58:19;;;;;;;;;13.33;9.00;;;;;8.09;72.10;102512.69;4997494;28;45591;-96
2021/12/14 06:00:51;;;;;;;;;10.00;8.67;;;;;8.05;71.97;102514.16;4998233;28;47987;-96
2021/12/14 06:03:24;;;;;;;;;12.67;7.00;;;;;8.09;72.05;102527.50;4996807;28;45403;-96
2021/12/14 06:05:51;;;;;;;;;9.00;9.00;;;;;7.89;72.56;102492.72;4998071;28;45362;-96
2021/12/14 06:08:29;;;;;;;;;13.67;9.67;;;;;8.07;73.09;102529.06;4997773;28;45339;-96
2021/12/14 06:10:56;;;;;;;;;12.67;10.00;;;;;8.00;72.56;102528.56;4999806;28;48722;-96
2021/12/14 06:13:43;;;;;;;;;15.33;11.33;;;;;8.09;73.03;102543.19;4990668;28;45699;-96
2021/12/14 06:16:27;;;;;;;;;13.33;11.33;;;;;8.09;73.38;102543.19;4997451;28;45341;-96
2021/12/14 06:18:53;;;;;;;;;12.00;8.00;;;;;8.08;73.21;102539.66;5015447;28;45427;-96
2021/12/14 06:21:31;;;;;;;;;12.67;10.33;;;;;8.20;72.01;102559.78;4997339;28;47474;-96
2021/12/14 06:24:04;;;;;;;;;14.33;13.00;;;;;8.17;72.79;102563.06;4994313;28;45579;-96
2021/12/14 06:26:38;;;;;;;;;10.67;9.00;;;;;8.09;73.11;102546.72;5580697;23;46194;-95
2021/12/14 06:29:13;;;;;;;;;10.67;9.67;;;;;8.13;72.81;102551.44;4990938;28;45996;-94
2021/12/14 06:31:41;;;;;;;;;7.00;7.00;;;;;8.20;72.62;102562.41;4969676;28;47107;-95
2021/12/14 06:34:15;;;;;;;;;12.00;10.67;;;;;8.11;72.49;102558.25;4971620;28;45299;-94
2021/12/14 06:36:51;;;;;;;;;13.33;12.00;;;;;8.13;72.45;102574.06;4975926;28;45422;-95
2021/12/14 06:39:17;;;;;;;;;9.00;9.00;;;;;8.08;72.75;102573.66;4987392;28;45486;-96
2021/12/14 06:41:44;;;;;;;;;8.67;7.00;;;;;8.05;72.61;102573.41;4988719;28;48458;-96
2021/12/14 06:49:20;;;;;;;;;14.67;10.33;;;;;8.08;72.68;102585.81;5386784;23;45936;-94
2021/12/14 06:51:52;;;;;;;;;9.00;8.33;;;;;8.07;72.84;102578.75;4971061;28;47973;-95
2021/12/14 06:54:23;;;;;;;;;14.33;9.33;;;;;7.94;72.59;102552.47;4976202;28;45394;-95
2021/12/14 06:56:51;;;;;;;;;11.00;8.00;;;;;8.11;73.18;102578.25;4985864;28;45429;-95
2021/12/14 06:59:20;;;;;;;;;13.67;9.33;;;;;8.10;72.95;102593.03;4958769;28;45525;-95
2021/12/14 07:02:02;;;;;;;;;13.33;9.00;;;;;7.98;73.34;102574.59;5003399;28;47150;-94
2021/12/14 07:04:33;;;;;;;;;15.67;10.33;;;;;8.15;72.98;102599.56;5003438;28;45342;-94
2021/12/14 07:07:03;;;;;;;;;10.00;7.67;;;;;8.06;73.31;102583.09;4985899;28;44885;-94
2021/12/14 07:09:33;;;;;;;;;8.00;8.00;;;;;8.10;72.93;102579.03;4980030;28;45696;-95
2021/12/14 07:11:59;;;;;;;;;14.33;10.00;;;;;8.21;72.46;102590.41;4979043;28;47958;-94
2021/12/14 07:14:38;;;;;;;;;20.00;14.00;;;;;8.15;72.81;102581.25;4976894;28;45254;-94
2021/12/14 07:17:10;;;;;;;;;16.67;12.00;;;;;8.23;72.84;102592.38;4940203;28;45515;-95
2021/12/14 07:20:15;;;;;;;;;11.33;6.67;;;;;8.20;72.42;102581.63;4956709;28;45291;-95
2021/12/14 07:22:50;;;;;;;;;9.00;7.00;;;;;8.11;71.80;102570.41;4972784;28;47178;-95
2021/12/14 07:25:23;;;;;;;;;13.33;10.00;;;;;8.14;72.81;102581.13;4958879;28;45441;-86
2021/12/14 07:27:52;;;;;;;;;13.00;9.00;;;;;8.17;72.57;102594.44;4955748;28;45736;-88
2021/12/14 07:30:33;;;;;;;;;12.67;10.00;;;;;8.20;72.35;102594.72;4973339;28;45548;-84
2021/12/14 07:33:05;;;;;;;;;9.33;8.00;;;;;8.18;72.69;102587.53;4972489;28;45594;-85
2021/12/14 07:35:51;;;;;;;;;12.67;9.33;;;;;8.19;72.94;102576.28;4968654;28;45601;-84
2021/12/14 07:38:28;;;;;;;;;9.67;7.67;;;;;8.25;72.17;102589.88;4952939;28;45641;-85
2021/12/14 07:41:23;;;;;;;;;13.00;7.67;;;;;8.23;72.73;102589.75;4972670;28;45356;-84
2021/12/14 07:44:04;;;;;;;;;13.00;11.67;;;;;8.27;72.90;102588.31;4953032;28;47538;-84
2021/12/14 07:46:36;;;;;;;;;8.67;8.67;;;;;8.31;72.47;102598.25;4949700;28;45416;-86
2021/12/14 07:49:25;;;;;;;;;14.33;12.67;;;;;8.31;72.07;102606.09;4957826;28;45518;-86
2021/12/14 07:51:56;;;;;;;;;15.67;13.33;;;;;8.32;72.02;102610.56;4951791;28;45657;-86
2021/12/14 07:54:26;;;;;;;;;13.00;12.33;;;;;8.32;71.87;102620.09;4951990;28;45697;-86
2021/12/14 07:56:59;;;;;;;;;17.67;13.67;;;;;8.31;72.08;102623.50;4951818;28;45583;-86
2021/12/14 07:59:32;;;;;;;;;14.33;14.00;;;;;8.29;72.53;102623.38;4934927;28;45480;-88
2021/12/14 08:02:31;;;;;;;;;20.67;13.00;;;;;8.27;72.09;102623.22;4930814;28;45616;-87
2021/12/14 08:05:02;;;;;;;;;14.00;12.00;;;;;8.29;72.49;102626.00;4931900;28;46387;-87
2021/12/14 08:07:32;;;;;;;;;15.67;11.33;;;;;8.31;72.68;102632.25;4928415;28;46307;-87
2021/12/14 08:10:15;;;;;;;;;16.33;12.00;;;;;8.33;72.59;102646.38;4952051;28;45800;-84
2021/12/14 08:12:50;;;;;;;;;14.00;10.33;;;;;8.35;71.94;102643.94;4946039;28;45618;-85
2021/12/14 08:15:38;;;;;;;;;16.67;13.00;;;;;8.37;72.48;102642.34;4933284;28;47075;-86
2021/12/14 08:18:15;;;;;;;;;14.67;14.33;;;;;8.41;72.36;102654.91;4951386;28;45791;-86
2021/12/14 08:21:00;;;;;;;;;15.67;11.00;;;;;8.42;72.34;102655.81;4954012;28;45464;-86
2021/12/14 08:23:26;;;;;;;;;27.00;19.33;;;;;8.44;72.26;102654.25;4951389;28;45535;-86
2021/12/14 08:25:55;;;;;;;;;23.33;20.67;;;;;8.44;71.56;102657.78;4956239;28;47206;-86
2021/12/14 08:28:21;;;;;;;;;19.67;19.33;;;;;8.49;72.41;102666.00;4956827;28;45460;-86
2021/12/14 08:30:58;;;;;;;;;21.33;20.00;;;;;8.55;72.40;102663.00;4959574;28;45491;-85
2021/12/14 08:33:26;;;;;;;;;22.00;17.33;;;;;8.51;72.19;102653.97;4952333;28;45450;-91
2021/12/14 08:35:54;;;;;;;;;30.00;20.67;;;;;8.55;72.50;102660.41;4953302;28;45934;-90
2021/12/14 08:38:20;;;;;;;;;21.33;20.00;;;;;8.58;72.12;102658.03;4952690;28;47468;-85
2021/12/14 08:40:51;;;;;;;;;28.33;21.33;;;;;8.59;71.98;102662.50;4958137;28;45475;-89
2021/12/14 08:43:33;;;;;;;;;22.67;18.33;;;;;8.57;72.10;102659.75;4933035;28;45539;-87
2021/12/14 08:46:10;;;;;;;;;24.67;22.67;;;;;8.57;72.10;102658.81;4946853;28;45756;-87
2021/12/14 08:48:44;;;;;;;;;26.00;24.00;;;;;8.61;71.91;102663.56;4939560;28;45977;-87
2021/12/14 08:51:17;;;;;;;;;26.00;23.00;;;;;8.58;71.98;102664.19;4956243;28;45642;-86
2021/12/14 08:53:47;;;;;;;;;25.00;18.00;;;;;8.63;71.79;102682.94;4953473;28;46109;-87
2021/12/14 08:56:15;;;;;;;;;26.67;20.33;;;;;8.63;71.88;102685.56;4971325;28;48362;-87
2021/12/14 08:58:42;;;;;;;;;15.67;15.33;;;;;8.66;72.20;102669.19;4953077;28;45779;-90
2021/12/14 09:01:15;;;;;;;;;20.33;17.33;;;;;8.63;71.72;102663.69;4965206;28;45396;-89
2021/12/14 09:03:50;;;;;;;;;17.00;14.33;;;;;8.70;72.49;102664.34;4965062;28;45546;-88
2021/12/14 09:06:18;;;;;;;;;21.00;16.67;;;;;8.80;72.65;102660.78;4959945;28;47258;-89
2021/12/14 09:08:47;;;;;;;;;18.67;16.00;;;;;8.88;72.30;102650.97;4969854;28;45694;-94
2021/12/14 09:11:14;;;;;;;;;21.00;16.00;;;;;8.87;72.18;102643.88;4969225;28;45480;-88
2021/12/14 09:13:41;;;;;;;;;14.67;14.00;;;;;8.94;71.72;102648.84;4970972;28;45559;-89
2021/12/14 09:16:15;;;;;;;;;14.67;14.00;;;;;9.03;71.56;102650.38;4973645;28;47135;-87
2021/12/14 09:18:45;;;;;;;;;17.33;15.00;;;;;9.07;71.70;102656.81;4967062;28;45632;-93
2021/12/14 09:21:16;;;;;;;;;16.00;12.00;;;;;9.12;71.19;102665.97;4972027;28;45324;-87
2021/12/14 09:23:47;;;;;;;;;17.00;15.67;;;;;9.14;71.30;102673.16;4965953;28;45642;-88
2021/12/14 09:26:18;;;;;;;;;16.00;14.67;;;;;9.15;71.41;102677.59;4962614;28;45816;-87
2021/12/14 09:28:43;;;;;;;;;14.33;12.33;;;;;9.22;71.97;102670.25;4971869;28;45379;-87
2021/12/14 09:31:14;;;;;;;;;21.33;19.33;;;;;9.26;70.69;102667.09;4957497;28;45468;-88
2021/12/14 09:33:41;;;;;;;;;26.00;20.33;;;;;9.27;70.89;102682.03;4953998;28;45642;-88
2021/12/14 09:36:12;;;;;;;;;19.33;18.67;;;;;9.27;71.08;102674.16;4952208;28;47288;-89
2021/12/14 09:38:41;;;;;;;;;27.67;21.67;;;;;9.30;71.03;102681.38;4969966;28;45515;-89
2021/12/14 09:41:11;;;;;;;;;18.00;16.67;;;;;9.34;71.39;102681.72;4945879;28;45511;-88
2021/12/14 09:43:37;;;;;;;;;22.67;19.67;;;;;9.35;70.96;102664.31;4971696;28;45454;-89
2021/12/14 09:46:06;;;;;;;;;22.33;18.00;;;;;9.42;70.34;102677.13;4945267;28;48859;-88
2021/12/14 09:48:36;;;;;;;;;23.67;21.33;;;;;9.45;70.50;102693.09;4945982;28;45543;-87
2021/12/14 09:51:08;;;;;;;;;23.00;16.50;;;;;9.38;70.47;102680.28;4936209;28;45517;-86
2021/12/14 09:53:37;;;;;;;;;21.67;16.00;;;;;9.41;70.87;102688.38;4923004;28;45700;-87
2021/12/14 09:56:04;;;;;;;;;21.33;18.00;;;;;9.47;70.42;102702.00;4937379;28;48269;-89
2021/12/14 09:58:37;;;;;;;;;26.67;19.67;;;;;9.46;70.74;102688.75;4941713;28;45426;-85
2021/12/14 10:01:08;;;;;;;;;19.33;15.00;;;;;9.48;69.99;102695.06;4930289;28;45695;-87
2021/12/14 10:03:35;;;;;;;;;17.33;14.00;;;;;9.50;69.80;102696.09;4932905;28;45615;-93
2021/12/14 10:06:05;;;;;;;;;28.00;22.33;;;;;9.48;70.36;102695.94;4939008;28;48626;-92
2021/12/14 10:08:40;;;;;;;;;23.33;19.33;;;;;9.44;70.03;102686.03;4935963;28;45817;-92
2021/12/14 10:11:14;;;;;;;;;25.33;17.00;;;;;9.54;70.71;102695.53;4936098;28;45346;-92
2021/12/14 10:13:43;;;;;;;;;23.33;22.67;;;;;9.50;69.86;102690.84;4954242;28;45585;-87
2021/12/14 10:16:13;;;;;;;;;26.33;18.67;;;;;9.52;70.25;102696.22;4949176;28;47131;-89
2021/12/14 10:18:43;;;;;;;;;20.00;17.33;;;;;9.54;70.88;102692.91;4946717;28;46273;-88
2021/12/14 10:21:29;;;;;;;;;17.00;15.33;;;;;9.56;70.33;102691.34;4922660;28;45425;-86
2021/12/14 10:23:58;;;;;;;;;23.67;17.67;;;;;9.55;69.90;102688.59;4950223;28;45515;-90
2021/12/14 10:26:27;;;;;;;;;24.33;18.00;;;;;9.58;69.89;102692.41;4928516;28;47275;-84
2021/12/14 10:28:56;;;;;;;;;20.00;18.33;;;;;9.59;70.76;102677.56;4954681;28;45522;-85
2021/12/14 10:31:37;;;;;;;;;24.67;22.00;;;;;9.63;69.71;102687.53;4935101;28;45751;-85
2021/12/14 10:34:08;;;;;;;;;25.50;22.75;;;;;9.61;70.06;102682.13;4943260;28;45444;-91
2021/12/14 10:36:39;;;;;;;;;24.67;20.67;;;;;9.70;70.23;102699.41;4946300;28;46041;-86
2021/12/14 10:44:32;;;;;;;;;28.33;25.33;;;;;9.89;69.64;102698.28;4972719;28;44811;-87
2021/12/14 10:46:59;;;;;;;;;28.50;25.75;;;;;9.91;69.51;102700.22;4974024;28;45661;-86
2021/12/14 10:49:25;;;;;;;;;29.50;25.00;;;;;9.91;69.46;102702.84;4969315;28;44791;-86
2021/12/14 10:51:59;;;;;;;;;24.25;22.50;;;;;9.93;69.95;102697.72;4983001;28;45347;-86
2021/12/14 10:54:25;;;;;;;;;22.33;21.33;;;;;10.06;70.38;102695.28;4967233;28;45611;-87
2021/12/14 10:57:02;;;;;;;;;22.33;22.33;;;;;10.13;69.90;102696.66;4952535;28;47147;-86
2021/12/14 10:59:32;;;;;;;;;25.67;21.67;;;;;10.19;69.40;102685.75;4967049;28;45929;-86
2021/12/14 11:01:58;;;;;;;;;23.33;20.67;;;;;10.24;69.52;102696.59;4967262;28;45574;-86
2021/12/14 11:04:41;;;;;;;;;22.67;22.67;;;;;10.30;69.16;102707.59;4950063;28;45385;-85
2021/12/14 11:07:15;;;;;;;;;24.67;19.33;;;;;10.28;69.11;102696.06;4946193;28;49589;-86
2021/12/14 11:09:52;;;;;;;;;32.00;21.33;;;;;10.34;69.91;102698.22;4962935;28;45533;-85
2021/12/14 11:12:30;;;;;;;;;26.25;23.25;;;;;10.38;69.07;102698.59;4961383;28;48690;-85
2021/12/14 11:15:00;;;;;;;;;28.75;23.50;;;;;10.35;68.59;102697.44;4969039;28;45575;-91
2021/12/14 11:20:22;;;;;;;;;25.50;21.00;;;;;10.27;69.32;102687.25;4968137;28;45482;-86
2021/12/14 11:23:03;;;;;;;;;23.25;23.25;;;;;10.33;69.41;102694.72;4952385;28;45589;-87
2021/12/14 11:25:32;;;;;;;;;23.33;23.00;;;;;10.33;68.41;102688.53;4963143;28;45473;-86
2021/12/14 11:27:58;;;;;;;;;24.50;23.75;;;;;10.32;68.49;102700.75;4962997;28;45644;-87
2021/12/14 11:30:29;;;;;;;;;24.25;21.75;;;;;10.30;69.17;102694.47;4940404;28;45494;-86
2021/12/14 11:33:05;;;;;;;;;24.67;21.00;;;;;10.28;69.23;102686.44;4965848;28;45509;-88
2021/12/14 11:35:32;;;;;;;;;26.00;21.50;;;;;10.33;69.58;102676.34;4969355;28;45813;-89
2021/12/14 11:38:01;;;;;;;;;23.67;20.67;;;;;10.43;69.66;102677.03;4964807;28;47632;-86
2021/12/14 11:40:29;;;;;;;;;27.67;21.00;;;;;10.49;69.26;102680.13;4970629;28;45759;-88
2021/12/14 11:43:13;;;;;;;;;23.00;21.67;;;;;10.54;69.39;102678.78;4969571;28;45625;-85
2021/12/14 11:45:41;;;;;;;;;24.00;18.33;;;;;10.57;69.31;102681.66;4966658;28;45431;-85
2021/12/14 11:48:08;;;;;;;;;26.00;22.00;;;;;10.66;69.29;102670.03;4969529;28;46357;-86
2021/12/14 11:50:38;;;;;;;;;23.00;20.33;;;;;10.68;68.69;102668.44;4951486;28;45822;-85
2021/12/14 11:53:07;;;;;;;;;26.00;22.75;;;;;10.70;68.76;102669.47;4926273;28;45470;-82
2021/12/14 11:55:45;;;;;;;;;23.33;21.00;;;;;10.66;68.61;102668.34;4946308;28;45491;-82
2021/12/14 11:58:20;;;;;;;;;28.67;25.00;;;;;10.68;68.23;102668.44;4942603;28;46222;-83
2021/12/14 12:00:48;;;;;;;;;24.67;21.00;;;;;10.62;68.56;102663.63;4941225;28;45464;-83
2021/12/14 12:03:42;;;;;;;;;27.33;25.00;;;;;10.62;68.60;102658.38;4940189;28;45545;-83
2021/12/14 12:06:24;;;;;;;;;26.33;21.00;;;;;10.63;68.86;102668.09;4860534;29;45746;-83
2021/12/14 12:11:44;;;;;;;;;29.00;24.00;;;;;10.78;68.55;102656.91;4871479;29;45523;-82
2021/12/14 12:14:26;;;;;;;;;23.67;19.67;;;;;10.77;68.22;102656.00;4872806;29;45420;-83
2021/12/14 12:16:54;;;;;;;;;31.50;25.00;;;;;10.80;68.82;102645.72;4873295;29;45572;-85
2021/12/14 12:19:24;;;;;;;;;29.67;25.00;;;;;10.86;68.52;102640.03;4871223;29;46321;-83
2021/12/14 12:21:51;;;;;;;;;27.00;23.00;;;;;10.91;68.09;102642.97;4852523;29;45380;-82
2021/12/14 12:24:32;;;;;;;;;30.25;28.75;;;;;10.89;68.49;102652.47;4849970;29;45687;-84